Ana Sayfa
METAR-TAF:

METAR-TAF

Havaalanları :

Greenwood, Mississipi, Amerika Birleşik Devletleri

Enlem: 33-29-33N, Boylam: 090-05-01W, yükseklik: 47 m

Güncel hava durumu gözlemi

Rapor saat 21:53 UTC de 1 saat ve 1 dakika önce yapıldı.
Rüzgar kuzeydoğudan 10 kt
Sıcaklık 33°C
Nem 44%
Basınç 1022 hPa
Görüş mesafesi: 16.1 km
7000 ft yükseklikte parçalı çok bulutlu

METAR: KGWO 202153Z AUTO 05010KT 10SM BKN070 33/19 A3017 RMK AO2 SLP215 T03330189

Saat: 17:54 (22:54 UTC)

Tahmin

Rapor saat 17:37 UTC de 5 saat ve 17 dakika önce yapıldı.
Ayın 20'si saat 18 UTC'den ayın 21'si saat 18 UTC'ye kadar geçerli Tahmin
Rüzgar doğudan 8 kt
Görüş mesafesi: 10 km
6000 ft yükseklikte parçalı bulutlu

TAF: KGWO 201737Z 2018/2118 10008KT P6SM SCT060

4.000'den fazla havaalanı için hava durumu gözlemleri ve tahminleri (METAR ve TAF raporları).

Kullanılabilir istasyonlar harita üzerinde sarı ve kırmızı noktalarla gösterilir.

İstasyonun adını görmek için fareyi noktanın üzerinde gezdirin.

Sonrasında hava gözlem ve tahminlerini görmek için tıklayın.

Haritayı değiştirmek için: yaklaştırmak için siyah artı işaretli yeşil düğmeye ve uzaklaştırmak için de eksi işaretli düğmeye hızla tıklayın; bitişik haritalar için yeşil okları kullanın.


METAR-TAF: